sensor_id;sensor_type;location;lat;lon;timestamp;pressure;altitude;pressure_sealevel;temperature;humidity
64687;BME280;51113;53.646;-113.674;2023-08-06T00:00:43;94574.41;;;22.86;45.18
64687;BME280;51113;53.646;-113.674;2023-08-06T00:03:13;94570.66;;;22.96;43.17
64687;BME280;51113;53.646;-113.674;2023-08-06T00:05:42;94567.84;;;23.01;41.79
64687;BME280;51113;53.646;-113.674;2023-08-06T00:08:10;94568.31;;;23.03;40.83
64687;BME280;51113;53.646;-113.674;2023-08-06T00:10:39;94573.78;;;22.98;43.77
64687;BME280;51113;53.646;-113.674;2023-08-06T00:13:09;94561.47;;;22.94;41.01
64687;BME280;51113;53.646;-113.674;2023-08-06T00:15:38;94567.22;;;23.04;40.99
64687;BME280;51113;53.646;-113.674;2023-08-06T00:18:06;94562.41;;;22.98;40.76
64687;BME280;51113;53.646;-113.674;2023-08-06T00:20:35;94560.06;;;22.96;40.37
64687;BME280;51113;53.646;-113.674;2023-08-06T00:23:07;94561.31;;;22.90;40.70
64687;BME280;51113;53.646;-113.674;2023-08-06T00:25:36;94560.84;;;22.88;45.03
64687;BME280;51113;53.646;-113.674;2023-08-06T00:28:05;94558.50;;;22.95;41.98
64687;BME280;51113;53.646;-113.674;2023-08-06T00:30:34;94564.75;;;22.91;40.84
64687;BME280;51113;53.646;-113.674;2023-08-06T00:33:02;94565.34;;;22.79;43.66
64687;BME280;51113;53.646;-113.674;2023-08-06T00:35:31;94562.09;;;22.65;42.95
64687;BME280;51113;53.646;-113.674;2023-08-06T00:38:00;94562.13;;;22.82;45.17
64687;BME280;51113;53.646;-113.674;2023-08-06T00:40:28;94554.16;;;22.65;43.65
64687;BME280;51113;53.646;-113.674;2023-08-06T00:42:58;94554.63;;;22.58;46.42
64687;BME280;51113;53.646;-113.674;2023-08-06T00:45:27;94548.56;;;22.58;43.43
64687;BME280;51113;53.646;-113.674;2023-08-06T00:47:58;94553.06;;;22.66;44.70
64687;BME280;51113;53.646;-113.674;2023-08-06T00:50:26;94551.84;;;22.80;47.34
64687;BME280;51113;53.646;-113.674;2023-08-06T00:52:55;94556.50;;;22.66;45.86
64687;BME280;51113;53.646;-113.674;2023-08-06T00:55:24;94550.88;;;22.76;44.51
64687;BME280;51113;53.646;-113.674;2023-08-06T00:57:53;94553.06;;;22.74;44.48
64687;BME280;51113;53.646;-113.674;2023-08-06T01:00:24;94543.56;;;22.65;44.72
64687;BME280;51113;53.646;-113.674;2023-08-06T01:02:53;94543.44;;;22.44;46.42
64687;BME280;51113;53.646;-113.674;2023-08-06T01:05:22;94541.56;;;22.36;48.70
64687;BME280;51113;53.646;-113.674;2023-08-06T01:11:31;94541.09;;;22.34;46.76
64687;BME280;51113;53.646;-113.674;2023-08-06T01:14:23;94540.16;;;22.21;48.72
64687;BME280;51113;53.646;-113.674;2023-08-06T01:16:56;94539.38;;;22.29;49.39
64687;BME280;51113;53.646;-113.674;2023-08-06T01:19:26;94532.69;;;22.23;47.48
64687;BME280;51113;53.646;-113.674;2023-08-06T01:21:55;94535.19;;;22.28;46.67
64687;BME280;51113;53.646;-113.674;2023-08-06T01:24:24;94532.69;;;22.23;49.66
64687;BME280;51113;53.646;-113.674;2023-08-06T01:27:06;94541.25;;;22.20;45.88
64687;BME280;51113;53.646;-113.674;2023-08-06T01:32:08;94529.88;;;22.11;47.75
64687;BME280;51113;53.646;-113.674;2023-08-06T01:34:40;94528.94;;;22.07;48.50
64687;BME280;51113;53.646;-113.674;2023-08-06T01:37:10;94526.56;;;21.97;50.32
64687;BME280;51113;53.646;-113.674;2023-08-06T01:39:42;94530.66;;;22.03;49.86
64687;BME280;51113;53.646;-113.674;2023-08-06T01:42:11;94526.22;;;21.81;49.12
64687;BME280;51113;53.646;-113.674;2023-08-06T01:44:39;94527.00;;;21.81;48.63
64687;BME280;51113;53.646;-113.674;2023-08-06T01:47:08;94524.50;;;21.76;48.83
64687;BME280;51113;53.646;-113.674;2023-08-06T01:49:37;94522.97;;;21.75;49.67
64687;BME280;51113;53.646;-113.674;2023-08-06T01:52:06;94528.69;;;21.69;49.56
64687;BME280;51113;53.646;-113.674;2023-08-06T01:54:34;94527.75;;;21.65;50.58
64687;BME280;51113;53.646;-113.674;2023-08-06T01:57:03;94533.34;;;21.63;49.54
64687;BME280;51113;53.646;-113.674;2023-08-06T01:59:32;94530.53;;;21.51;50.35
64687;BME280;51113;53.646;-113.674;2023-08-06T02:02:00;94530.97;;;21.44;50.02
64687;BME280;51113;53.646;-113.674;2023-08-06T02:04:29;94536.56;;;21.43;49.92
64687;BME280;51113;53.646;-113.674;2023-08-06T02:06:58;94534.16;;;21.24;50.67
64687;BME280;51113;53.646;-113.674;2023-08-06T02:09:26;94530.66;;;21.15;52.44
64687;BME280;51113;53.646;-113.674;2023-08-06T02:11:55;94532.66;;;21.09;50.61
64687;BME280;51113;53.646;-113.674;2023-08-06T02:14:23;94533.63;;;21.13;49.82
64687;BME280;51113;53.646;-113.674;2023-08-06T02:16:52;94533.47;;;21.18;49.88
64687;BME280;51113;53.646;-113.674;2023-08-06T02:19:20;94539.16;;;21.03;50.80
64687;BME280;51113;53.646;-113.674;2023-08-06T02:21:49;94530.63;;;21.06;50.05
64687;BME280;51113;53.646;-113.674;2023-08-06T02:24:18;94542.06;;;20.93;53.50
64687;BME280;51113;53.646;-113.674;2023-08-06T02:26:50;94546.88;;;20.91;50.98
64687;BME280;51113;53.646;-113.674;2023-08-06T02:29:19;94540.16;;;20.85;51.31
64687;BME280;51113;53.646;-113.674;2023-08-06T02:31:48;94541.31;;;20.70;51.76
64687;BME280;51113;53.646;-113.674;2023-08-06T02:34:17;94532.81;;;20.51;54.80
64687;BME280;51113;53.646;-113.674;2023-08-06T02:36:46;94537.06;;;20.60;51.96
64687;BME280;51113;53.646;-113.674;2023-08-06T02:39:14;94529.81;;;20.44;53.98
64687;BME280;51113;53.646;-113.674;2023-08-06T02:41:43;94530.69;;;20.39;52.26
64687;BME280;51113;53.646;-113.674;2023-08-06T02:44:11;94529.47;;;20.23;53.90
64687;BME280;51113;53.646;-113.674;2023-08-06T02:46:40;94531.38;;;20.31;53.16
64687;BME280;51113;53.646;-113.674;2023-08-06T02:49:08;94529.22;;;20.33;52.76
64687;BME280;51113;53.646;-113.674;2023-08-06T02:51:37;94529.66;;;19.90;56.99
64687;BME280;51113;53.646;-113.674;2023-08-06T02:54:06;94534.38;;;19.66;58.42
64687;BME280;51113;53.646;-113.674;2023-08-06T02:56:35;94530.06;;;19.70;56.92
64687;BME280;51113;53.646;-113.674;2023-08-06T02:59:04;94531.34;;;19.59;58.03
64687;BME280;51113;53.646;-113.674;2023-08-06T03:01:32;94538.28;;;19.41;57.84
64687;BME280;51113;53.646;-113.674;2023-08-06T03:04:02;94535.81;;;19.31;57.49
64687;BME280;51113;53.646;-113.674;2023-08-06T03:06:30;94539.44;;;19.35;57.67
64687;BME280;51113;53.646;-113.674;2023-08-06T03:08:59;94536.50;;;19.36;57.08
64687;BME280;51113;53.646;-113.674;2023-08-06T03:11:28;94535.94;;;19.40;57.08
64687;BME280;51113;53.646;-113.674;2023-08-06T03:13:56;94538.06;;;19.38;57.38
64687;BME280;51113;53.646;-113.674;2023-08-06T03:16:25;94538.66;;;19.07;58.96
64687;BME280;51113;53.646;-113.674;2023-08-06T03:18:53;94549.38;;;19.11;58.92
64687;BME280;51113;53.646;-113.674;2023-08-06T03:21:22;94546.31;;;18.90;61.22
64687;BME280;51113;53.646;-113.674;2023-08-06T03:23:51;94544.22;;;18.73;60.70
64687;BME280;51113;53.646;-113.674;2023-08-06T03:26:20;94550.16;;;18.46;62.77
64687;BME280;51113;53.646;-113.674;2023-08-06T03:28:49;94551.69;;;18.15;64.36
64687;BME280;51113;53.646;-113.674;2023-08-06T03:31:17;94561.84;;;18.02;64.71
64687;BME280;51113;53.646;-113.674;2023-08-06T03:33:46;94551.88;;;17.81;66.17
64687;BME280;51113;53.646;-113.674;2023-08-06T03:36:15;94555.97;;;17.68;66.63
64687;BME280;51113;53.646;-113.674;2023-08-06T03:38:43;94556.97;;;17.48;67.04
64687;BME280;51113;53.646;-113.674;2023-08-06T03:41:12;94560.00;;;17.36;67.32
64687;BME280;51113;53.646;-113.674;2023-08-06T03:43:40;94564.06;;;17.24;68.42
64687;BME280;51113;53.646;-113.674;2023-08-06T03:46:09;94569.25;;;17.05;69.10
64687;BME280;51113;53.646;-113.674;2023-08-06T03:48:38;94572.19;;;16.98;69.14
64687;BME280;51113;53.646;-113.674;2023-08-06T03:51:06;94565.72;;;16.91;69.21
64687;BME280;51113;53.646;-113.674;2023-08-06T03:53:35;94564.34;;;16.98;68.12
64687;BME280;51113;53.646;-113.674;2023-08-06T03:56:03;94560.75;;;16.89;69.13
64687;BME280;51113;53.646;-113.674;2023-08-06T03:58:32;94565.03;;;16.80;69.05
64687;BME280;51113;53.646;-113.674;2023-08-06T04:01:01;94569.03;;;16.72;69.07
64687;BME280;51113;53.646;-113.674;2023-08-06T04:03:30;94566.47;;;16.62;68.93
64687;BME280;51113;53.646;-113.674;2023-08-06T04:05:59;94569.72;;;16.49;69.02
64687;BME280;51113;53.646;-113.674;2023-08-06T04:08:29;94566.38;;;16.38;69.56
64687;BME280;51113;53.646;-113.674;2023-08-06T04:10:57;94565.91;;;16.31;69.17
64687;BME280;51113;53.646;-113.674;2023-08-06T04:13:26;94562.66;;;16.44;68.99
64687;BME280;51113;53.646;-113.674;2023-08-06T04:15:54;94571.38;;;16.35;68.68
64687;BME280;51113;53.646;-113.674;2023-08-06T04:18:23;94580.88;;;16.26;69.29
64687;BME280;51113;53.646;-113.674;2023-08-06T04:20:52;94577.25;;;16.22;69.01
64687;BME280;51113;53.646;-113.674;2023-08-06T04:23:24;94568.06;;;16.19;69.58
64687;BME280;51113;53.646;-113.674;2023-08-06T04:25:56;94578.25;;;16.26;69.45
64687;BME280;51113;53.646;-113.674;2023-08-06T04:28:25;94584.66;;;16.09;69.44
64687;BME280;51113;53.646;-113.674;2023-08-06T04:30:54;94588.31;;;16.08;69.76
64687;BME280;51113;53.646;-113.674;2023-08-06T04:33:22;94584.31;;;16.21;70.00
64687;BME280;51113;53.646;-113.674;2023-08-06T04:35:55;94584.88;;;16.13;69.08
64687;BME280;51113;53.646;-113.674;2023-08-06T04:38:24;94586.72;;;16.12;69.13
64687;BME280;51113;53.646;-113.674;2023-08-06T04:40:53;94592.84;;;15.98;70.08
64687;BME280;51113;53.646;-113.674;2023-08-06T04:43:22;94591.53;;;15.95;69.91
64687;BME280;51113;53.646;-113.674;2023-08-06T04:45:54;94588.38;;;15.98;69.67
64687;BME280;51113;53.646;-113.674;2023-08-06T04:48:24;94592.06;;;15.97;70.09
64687;BME280;51113;53.646;-113.674;2023-08-06T04:50:52;94599.22;;;15.81;70.79
64687;BME280;51113;53.646;-113.674;2023-08-06T04:53:21;94600.59;;;15.64;71.71
64687;BME280;51113;53.646;-113.674;2023-08-06T04:55:49;94595.34;;;15.54;72.02
64687;BME280;51113;53.646;-113.674;2023-08-06T04:58:18;94594.34;;;15.44;72.67
64687;BME280;51113;53.646;-113.674;2023-08-06T05:00:46;94602.22;;;15.29;73.78
64687;BME280;51113;53.646;-113.674;2023-08-06T05:03:15;94603.56;;;15.16;74.55
64687;BME280;51113;53.646;-113.674;2023-08-06T05:05:46;94599.66;;;15.09;74.79
64687;BME280;51113;53.646;-113.674;2023-08-06T05:08:15;94599.69;;;14.99;74.83
64687;BME280;51113;53.646;-113.674;2023-08-06T05:10:47;94607.28;;;14.85;76.24
64687;BME280;51113;53.646;-113.674;2023-08-06T05:13:15;94614.84;;;14.81;76.61
64687;BME280;51113;53.646;-113.674;2023-08-06T05:15:44;94617.47;;;14.76;77.27
64687;BME280;51113;53.646;-113.674;2023-08-06T05:18:14;94616.94;;;14.69;76.98
64687;BME280;51113;53.646;-113.674;2023-08-06T05:20:43;94608.31;;;14.64;77.21
64687;BME280;51113;53.646;-113.674;2023-08-06T05:23:12;94616.44;;;14.57;77.85
64687;BME280;51113;53.646;-113.674;2023-08-06T05:25:41;94615.13;;;14.54;78.00
64687;BME280;51113;53.646;-113.674;2023-08-06T05:28:09;94613.03;;;14.51;77.52
64687;BME280;51113;53.646;-113.674;2023-08-06T05:30:41;94614.34;;;14.49;77.58
64687;BME280;51113;53.646;-113.674;2023-08-06T05:33:10;94615.91;;;14.45;77.71
64687;BME280;51113;53.646;-113.674;2023-08-06T05:35:40;94612.19;;;14.36;77.88
64687;BME280;51113;53.646;-113.674;2023-08-06T05:38:08;94603.31;;;14.32;78.80
64687;BME280;51113;53.646;-113.674;2023-08-06T05:40:37;94601.19;;;14.18;79.18
64687;BME280;51113;53.646;-113.674;2023-08-06T05:43:06;94601.97;;;14.19;78.26
64687;BME280;51113;53.646;-113.674;2023-08-06T05:45:34;94597.00;;;14.07;79.12
64687;BME280;51113;53.646;-113.674;2023-08-06T05:48:03;94598.81;;;14.02;78.95
64687;BME280;51113;53.646;-113.674;2023-08-06T05:50:32;94604.03;;;14.02;78.88
64687;BME280;51113;53.646;-113.674;2023-08-06T05:53:01;94596.44;;;13.95;79.13
64687;BME280;51113;53.646;-113.674;2023-08-06T05:55:29;94601.13;;;13.93;78.96
64687;BME280;51113;53.646;-113.674;2023-08-06T05:57:59;94594.31;;;13.87;80.04
64687;BME280;51113;53.646;-113.674;2023-08-06T06:00:28;94593.53;;;13.86;79.74
64687;BME280;51113;53.646;-113.674;2023-08-06T06:02:57;94587.00;;;13.84;79.64
64687;BME280;51113;53.646;-113.674;2023-08-06T06:05:25;94594.06;;;13.88;80.26
64687;BME280;51113;53.646;-113.674;2023-08-06T06:07:54;94601.41;;;13.97;78.89
64687;BME280;51113;53.646;-113.674;2023-08-06T06:10:23;94594.38;;;14.07;78.98
64687;BME280;51113;53.646;-113.674;2023-08-06T06:12:51;94590.97;;;14.02;78.64
64687;BME280;51113;53.646;-113.674;2023-08-06T06:15:20;94589.88;;;13.87;78.95
64687;BME280;51113;53.646;-113.674;2023-08-06T06:17:48;94596.13;;;13.81;79.10
64687;BME280;51113;53.646;-113.674;2023-08-06T06:20:17;94588.78;;;13.73;79.72
64687;BME280;51113;53.646;-113.674;2023-08-06T06:22:45;94585.63;;;13.66;80.32
64687;BME280;51113;53.646;-113.674;2023-08-06T06:25:14;94585.91;;;13.70;80.18
64687;BME280;51113;53.646;-113.674;2023-08-06T06:27:43;94587.72;;;13.64;80.40
64687;BME280;51113;53.646;-113.674;2023-08-06T06:30:11;94583.78;;;13.62;80.22
64687;BME280;51113;53.646;-113.674;2023-08-06T06:32:40;94584.66;;;13.82;78.40
64687;BME280;51113;53.646;-113.674;2023-08-06T06:35:09;94584.66;;;13.82;78.87
64687;BME280;51113;53.646;-113.674;2023-08-06T06:37:38;94585.94;;;13.75;79.13
64687;BME280;51113;53.646;-113.674;2023-08-06T06:40:07;94579.16;;;13.84;78.57
64687;BME280;51113;53.646;-113.674;2023-08-06T06:42:35;94585.97;;;13.85;78.46
64687;BME280;51113;53.646;-113.674;2023-08-06T06:45:04;94577.06;;;13.81;78.55
64687;BME280;51113;53.646;-113.674;2023-08-06T06:47:33;94578.63;;;13.82;78.23
64687;BME280;51113;53.646;-113.674;2023-08-06T06:50:02;94576.53;;;13.79;79.43
64687;BME280;51113;53.646;-113.674;2023-08-06T06:52:31;94580.69;;;13.65;79.86
64687;BME280;51113;53.646;-113.674;2023-08-06T06:54:59;94567.91;;;13.73;79.41
64687;BME280;51113;53.646;-113.674;2023-08-06T06:57:28;94578.56;;;13.62;79.94
64687;BME280;51113;53.646;-113.674;2023-08-06T06:59:56;94583.22;;;13.49;80.23
64687;BME280;51113;53.646;-113.674;2023-08-06T07:02:25;94578.47;;;13.36;81.12
64687;BME280;51113;53.646;-113.674;2023-08-06T07:04:53;94576.88;;;13.30;81.07
64687;BME280;51113;53.646;-113.674;2023-08-06T07:07:22;94580.53;;;13.29;81.57
64687;BME280;51113;53.646;-113.674;2023-08-06T07:09:51;94579.97;;;13.22;81.60
64687;BME280;51113;53.646;-113.674;2023-08-06T07:12:19;94580.94;;;13.16;81.42
64687;BME280;51113;53.646;-113.674;2023-08-06T07:14:49;94583.03;;;13.14;82.19
64687;BME280;51113;53.646;-113.674;2023-08-06T07:17:18;94587.44;;;13.13;82.17
64687;BME280;51113;53.646;-113.674;2023-08-06T07:19:47;94578.69;;;13.24;82.33
64687;BME280;51113;53.646;-113.674;2023-08-06T07:22:15;94582.09;;;13.30;82.12
64687;BME280;51113;53.646;-113.674;2023-08-06T07:24:44;94574.81;;;13.32;81.93
64687;BME280;51113;53.646;-113.674;2023-08-06T07:27:13;94572.75;;;13.39;82.19
64687;BME280;51113;53.646;-113.674;2023-08-06T07:29:42;94569.38;;;13.44;82.17
64687;BME280;51113;53.646;-113.674;2023-08-06T07:32:10;94565.22;;;13.53;81.68
64687;BME280;51113;53.646;-113.674;2023-08-06T07:34:39;94569.94;;;13.56;81.89
64687;BME280;51113;53.646;-113.674;2023-08-06T07:37:07;94564.47;;;13.57;81.51
64687;BME280;51113;53.646;-113.674;2023-08-06T07:39:36;94561.59;;;13.59;81.63
64687;BME280;51113;53.646;-113.674;2023-08-06T07:42:07;94562.63;;;13.58;81.16
64687;BME280;51113;53.646;-113.674;2023-08-06T07:44:36;94563.91;;;13.50;81.66
64687;BME280;51113;53.646;-113.674;2023-08-06T07:47:07;94568.88;;;13.47;81.78
64687;BME280;51113;53.646;-113.674;2023-08-06T07:49:35;94567.78;;;13.38;82.12
64687;BME280;51113;53.646;-113.674;2023-08-06T07:52:04;94559.91;;;13.28;81.98
64687;BME280;51113;53.646;-113.674;2023-08-06T07:54:33;94558.59;;;13.25;82.52
64687;BME280;51113;53.646;-113.674;2023-08-06T07:57:01;94568.47;;;13.18;82.72
64687;BME280;51113;53.646;-113.674;2023-08-06T07:59:30;94562.16;;;13.14;83.06
64687;BME280;51113;53.646;-113.674;2023-08-06T08:01:59;94561.56;;;13.02;83.35
64687;BME280;51113;53.646;-113.674;2023-08-06T08:04:27;94561.78;;;12.95;83.78
64687;BME280;51113;53.646;-113.674;2023-08-06T08:06:56;94565.16;;;12.90;83.86
64687;BME280;51113;53.646;-113.674;2023-08-06T08:09:24;94556.22;;;12.81;84.32
64687;BME280;51113;53.646;-113.674;2023-08-06T08:11:53;94559.03;;;12.70;84.85
64687;BME280;51113;53.646;-113.674;2023-08-06T08:14:25;94557.41;;;12.64;85.60
64687;BME280;51113;53.646;-113.674;2023-08-06T08:16:54;94562.06;;;12.56;85.67
64687;BME280;51113;53.646;-113.674;2023-08-06T08:19:22;94553.91;;;12.48;86.33
64687;BME280;51113;53.646;-113.674;2023-08-06T08:21:54;94552.00;;;12.38;86.38
64687;BME280;51113;53.646;-113.674;2023-08-06T08:24:22;94551.22;;;12.38;86.62
64687;BME280;51113;53.646;-113.674;2023-08-06T08:26:54;94559.25;;;12.31;87.09
64687;BME280;51113;53.646;-113.674;2023-08-06T08:29:22;94555.03;;;12.25;87.43
64687;BME280;51113;53.646;-113.674;2023-08-06T08:31:51;94550.03;;;12.18;87.76
64687;BME280;51113;53.646;-113.674;2023-08-06T08:34:20;94554.94;;;12.15;87.89
64687;BME280;51113;53.646;-113.674;2023-08-06T08:36:49;94554.13;;;12.09;87.84
64687;BME280;51113;53.646;-113.674;2023-08-06T08:39:18;94548.06;;;12.04;87.94
64687;BME280;51113;53.646;-113.674;2023-08-06T08:41:46;94547.25;;;11.98;88.19
64687;BME280;51113;53.646;-113.674;2023-08-06T08:44:16;94539.38;;;11.93;88.28
64687;BME280;51113;53.646;-113.674;2023-08-06T08:46:46;94540.41;;;11.92;88.33
64687;BME280;51113;53.646;-113.674;2023-08-06T08:49:17;94541.16;;;11.87;88.42
64687;BME280;51113;53.646;-113.674;2023-08-06T08:51:46;94542.19;;;11.86;88.83
64687;BME280;51113;53.646;-113.674;2023-08-06T08:54:17;94534.31;;;11.81;89.42
64687;BME280;51113;53.646;-113.674;2023-08-06T08:56:46;94527.22;;;11.77;89.69
64687;BME280;51113;53.646;-113.674;2023-08-06T08:59:14;94527.22;;;11.77;88.82
64687;BME280;51113;53.646;-113.674;2023-08-06T09:01:44;94523.72;;;11.88;89.85
64687;BME280;51113;53.646;-113.674;2023-08-06T09:04:14;94504.28;;;11.74;89.01
64687;BME280;51113;53.646;-113.674;2023-08-06T09:06:50;94518.72;;;11.81;89.99
64687;BME280;51113;53.646;-113.674;2023-08-06T09:09:31;94517.78;;;11.71;89.54
64687;BME280;51113;53.646;-113.674;2023-08-06T09:12:02;94521.91;;;11.67;90.35
64687;BME280;51113;53.646;-113.674;2023-08-06T09:14:34;94519.81;;;11.63;90.74
64687;BME280;51113;53.646;-113.674;2023-08-06T09:17:04;94517.94;;;11.59;90.76
64687;BME280;51113;53.646;-113.674;2023-08-06T09:19:34;94512.44;;;11.55;90.83
64687;BME280;51113;53.646;-113.674;2023-08-06T09:22:03;94515.22;;;11.49;91.15
64687;BME280;51113;53.646;-113.674;2023-08-06T09:24:40;94507.63;;;11.42;91.61
64687;BME280;51113;53.646;-113.674;2023-08-06T09:27:13;94502.34;;;11.37;91.50
64687;BME280;51113;53.646;-113.674;2023-08-06T09:29:46;94505.50;;;11.39;91.78
64687;BME280;51113;53.646;-113.674;2023-08-06T09:32:14;94506.03;;;11.41;91.89
64687;BME280;51113;53.646;-113.674;2023-08-06T09:34:43;94506.59;;;11.43;91.78
64687;BME280;51113;53.646;-113.674;2023-08-06T09:37:12;94495.81;;;11.35;91.98
64687;BME280;51113;53.646;-113.674;2023-08-06T09:39:41;94501.28;;;11.33;91.76
64687;BME280;51113;53.646;-113.674;2023-08-06T09:42:09;94495.00;;;11.29;92.03
64687;BME280;51113;53.646;-113.674;2023-08-06T09:44:40;94485.81;;;11.21;91.77
64687;BME280;51113;53.646;-113.674;2023-08-06T09:47:09;94501.41;;;11.21;91.81
64687;BME280;51113;53.646;-113.674;2023-08-06T09:49:41;94500.84;;;11.19;91.93
64687;BME280;51113;53.646;-113.674;2023-08-06T09:52:14;94496.16;;;11.16;92.53
64687;BME280;51113;53.646;-113.674;2023-08-06T09:54:44;94499.63;;;11.49;92.20
64687;BME280;51113;53.646;-113.674;2023-08-06T09:57:14;94503.94;;;11.38;91.83
64687;BME280;51113;53.646;-113.674;2023-08-06T09:59:44;94496.56;;;11.30;92.74
64687;BME280;51113;53.646;-113.674;2023-08-06T10:02:15;94501.47;;;11.26;92.81
64687;BME280;51113;53.646;-113.674;2023-08-06T10:04:48;94502.44;;;11.20;93.01
64687;BME280;51113;53.646;-113.674;2023-08-06T10:07:21;94502.38;;;11.15;92.71
64687;BME280;51113;53.646;-113.674;2023-08-06T10:09:52;94507.03;;;11.13;93.22
64687;BME280;51113;53.646;-113.674;2023-08-06T10:12:21;94504.19;;;11.15;93.78
64687;BME280;51113;53.646;-113.674;2023-08-06T10:14:53;94502.84;;;11.12;93.79
64687;BME280;51113;53.646;-113.674;2023-08-06T10:17:22;94498.69;;;11.11;93.61
64687;BME280;51113;53.646;-113.674;2023-08-06T10:20:05;94498.13;;;11.09;92.65
64687;BME280;51113;53.646;-113.674;2023-08-06T10:22:35;94489.44;;;10.98;93.28
64687;BME280;51113;53.646;-113.674;2023-08-06T10:25:04;94495.13;;;10.95;93.22
64687;BME280;51113;53.646;-113.674;2023-08-06T10:27:36;94489.84;;;10.90;93.99
64687;BME280;51113;53.646;-113.674;2023-08-06T10:30:31;94503.31;;;10.87;93.10
64687;BME280;51113;53.646;-113.674;2023-08-06T10:33:02;94507.19;;;10.85;93.88
64687;BME280;51113;53.646;-113.674;2023-08-06T10:36:00;94509.78;;;10.85;93.71
64687;BME280;51113;53.646;-113.674;2023-08-06T10:38:29;94505.25;;;10.75;93.79
64687;BME280;51113;53.646;-113.674;2023-08-06T10:41:01;94513.41;;;10.84;94.59
64687;BME280;51113;53.646;-113.674;2023-08-06T10:43:35;94507.59;;;10.77;94.53
64687;BME280;51113;53.646;-113.674;2023-08-06T10:46:23;94510.16;;;10.93;94.45
64687;BME280;51113;53.646;-113.674;2023-08-06T10:48:52;94509.00;;;10.84;94.00
64687;BME280;51113;53.646;-113.674;2023-08-06T10:51:21;94516.25;;;10.82;94.25
64687;BME280;51113;53.646;-113.674;2023-08-06T10:53:50;94511.00;;;10.77;93.86
64687;BME280;51113;53.646;-113.674;2023-08-06T10:56:23;94517.13;;;10.71;93.78
64687;BME280;51113;53.646;-113.674;2023-08-06T10:58:54;94517.38;;;10.70;94.25
64687;BME280;51113;53.646;-113.674;2023-08-06T11:01:28;94516.22;;;10.60;93.61
64687;BME280;51113;53.646;-113.674;2023-08-06T11:04:02;94515.66;;;10.58;93.51
64687;BME280;51113;53.646;-113.674;2023-08-06T11:06:30;94514.34;;;10.56;93.59
64687;BME280;51113;53.646;-113.674;2023-08-06T11:08:59;94521.81;;;10.52;93.77
64687;BME280;51113;53.646;-113.674;2023-08-06T11:11:27;94511.91;;;10.49;93.63
64687;BME280;51113;53.646;-113.674;2023-08-06T11:13:57;94518.81;;;10.44;93.73
64687;BME280;51113;53.646;-113.674;2023-08-06T11:16:26;94515.69;;;10.42;93.95
64687;BME280;51113;53.646;-113.674;2023-08-06T11:18:55;94523.41;;;10.37;94.21
64687;BME280;51113;53.646;-113.674;2023-08-06T11:21:25;94517.66;;;10.34;94.32
64687;BME280;51113;53.646;-113.674;2023-08-06T11:23:54;94516.09;;;10.33;94.59
64687;BME280;51113;53.646;-113.674;2023-08-06T11:26:23;94518.38;;;10.30;94.17
64687;BME280;51113;53.646;-113.674;2023-08-06T11:28:52;94515.44;;;10.26;94.49
64687;BME280;51113;53.646;-113.674;2023-08-06T11:31:22;94512.84;;;10.26;94.69
64687;BME280;51113;53.646;-113.674;2023-08-06T11:33:54;94513.34;;;10.23;94.98
64687;BME280;51113;53.646;-113.674;2023-08-06T11:36:34;94520.56;;;10.21;94.84
64687;BME280;51113;53.646;-113.674;2023-08-06T11:39:03;94515.13;;;10.23;95.03
64687;BME280;51113;53.646;-113.674;2023-08-06T11:41:35;94508.81;;;10.19;94.60
64687;BME280;51113;53.646;-113.674;2023-08-06T11:44:06;94509.84;;;10.18;95.19
64687;BME280;51113;53.646;-113.674;2023-08-06T11:46:51;94510.78;;;10.12;94.49
64687;BME280;51113;53.646;-113.674;2023-08-06T11:52:29;94513.47;;;10.17;95.13
64687;BME280;51113;53.646;-113.674;2023-08-06T11:55:02;94515.50;;;10.15;94.68
64687;BME280;51113;53.646;-113.674;2023-08-06T11:57:32;94514.25;;;10.17;94.74
64687;BME280;51113;53.646;-113.674;2023-08-06T12:00:07;94508.19;;;10.12;94.40
64687;BME280;51113;53.646;-113.674;2023-08-06T12:02:40;94516.25;;;10.27;94.81
64687;BME280;51113;53.646;-113.674;2023-08-06T12:05:14;94511.28;;;10.25;95.12
64687;BME280;51113;53.646;-113.674;2023-08-06T12:07:48;94511.41;;;10.19;94.05
64687;BME280;51113;53.646;-113.674;2023-08-06T12:10:17;94511.09;;;10.15;94.79
64687;BME280;51113;53.646;-113.674;2023-08-06T12:12:48;94516.53;;;10.14;94.67
64687;BME280;51113;53.646;-113.674;2023-08-06T12:15:16;94504.47;;;10.08;95.08
64687;BME280;51113;53.646;-113.674;2023-08-06T12:17:45;94508.66;;;10.09;94.97
64687;BME280;51113;53.646;-113.674;2023-08-06T12:20:14;94517.53;;;10.13;95.04
64687;BME280;51113;53.646;-113.674;2023-08-06T12:22:43;94516.00;;;10.28;95.15
64687;BME280;51113;53.646;-113.674;2023-08-06T12:25:13;94510.41;;;10.37;94.88
64687;BME280;51113;53.646;-113.674;2023-08-06T12:27:43;94515.44;;;10.43;94.60
64687;BME280;51113;53.646;-113.674;2023-08-06T12:30:12;94501.66;;;10.59;96.38
64687;BME280;51113;53.646;-113.674;2023-08-06T12:32:41;94514.81;;;10.91;97.05
64687;BME280;51113;53.646;-113.674;2023-08-06T12:35:10;94501.25;;;10.67;94.35
64687;BME280;51113;53.646;-113.674;2023-08-06T12:37:38;94506.19;;;10.69;94.37
64687;BME280;51113;53.646;-113.674;2023-08-06T12:40:07;94511.31;;;10.64;94.25
64687;BME280;51113;53.646;-113.674;2023-08-06T12:42:56;94510.00;;;10.61;94.43
64687;BME280;51113;53.646;-113.674;2023-08-06T12:45:24;94493.38;;;10.62;94.91
64687;BME280;51113;53.646;-113.674;2023-08-06T12:47:53;94503.38;;;10.71;95.60
64687;BME280;51113;53.646;-113.674;2023-08-06T12:50:22;94499.28;;;10.96;96.39
64687;BME280;51113;53.646;-113.674;2023-08-06T12:52:50;94495.97;;;11.01;95.37